sensor_id;sensor_type;location;lat;lon;timestamp;pressure;altitude;pressure_sealevel;temperature;humidity
4085;BME280;2057;50.858;6.572;2023-01-08T00:00:56;99336.41;;;9.69;100.00
4085;BME280;2057;50.858;6.572;2023-01-08T00:03:22;99322.72;;;9.64;100.00
4085;BME280;2057;50.858;6.572;2023-01-08T00:05:48;99315.50;;;9.77;100.00
4085;BME280;2057;50.858;6.572;2023-01-08T00:08:13;99319.06;;;9.82;100.00
4085;BME280;2057;50.858;6.572;2023-01-08T00:15:49;99330.84;;;9.80;100.00
4085;BME280;2057;50.858;6.572;2023-01-08T00:18:14;99323.50;;;9.87;100.00
4085;BME280;2057;50.858;6.572;2023-01-08T00:20:44;99320.81;;;9.83;100.00
4085;BME280;2057;50.858;6.572;2023-01-08T00:23:13;99324.94;;;9.81;100.00
4085;BME280;2057;50.858;6.572;2023-01-08T00:25:39;99323.34;;;9.83;100.00
4085;BME280;2057;50.858;6.572;2023-01-08T00:28:04;99314.19;;;9.88;100.00
4085;BME280;2057;50.858;6.572;2023-01-08T00:30:30;99303.41;;;9.94;100.00
4085;BME280;2057;50.858;6.572;2023-01-08T00:32:55;99289.63;;;9.85;100.00
4085;BME280;2057;50.858;6.572;2023-01-08T00:35:23;99293.78;;;9.83;100.00
4085;BME280;2057;50.858;6.572;2023-01-08T00:37:49;99296.75;;;9.97;100.00
4085;BME280;2057;50.858;6.572;2023-01-08T00:42:47;99300.19;;;9.99;100.00
4085;BME280;2057;50.858;6.572;2023-01-08T00:45:12;99312.97;;;10.02;100.00
4085;BME280;2057;50.858;6.572;2023-01-08T00:47:38;99306.16;;;10.01;100.00
4085;BME280;2057;50.858;6.572;2023-01-08T00:50:04;99302.13;;;10.07;100.00
4085;BME280;2057;50.858;6.572;2023-01-08T00:52:29;99298.78;;;10.08;100.00
4085;BME280;2057;50.858;6.572;2023-01-08T00:54:54;99312.16;;;10.03;100.00
4085;BME280;2057;50.858;6.572;2023-01-08T00:57:22;99299.25;;;9.96;100.00
4085;BME280;2057;50.858;6.572;2023-01-08T00:59:48;99284.06;;;9.97;100.00
4085;BME280;2057;50.858;6.572;2023-01-08T01:02:13;99278.09;;;9.95;100.00
4085;BME280;2057;50.858;6.572;2023-01-08T01:04:39;99284.78;;;9.93;100.00
4085;BME280;2057;50.858;6.572;2023-01-08T01:07:06;99295.03;;;9.96;100.00
4085;BME280;2057;50.858;6.572;2023-01-08T01:09:32;99287.53;;;9.99;100.00
4085;BME280;2057;50.858;6.572;2023-01-08T01:11:57;99270.47;;;9.95;100.00
4085;BME280;2057;50.858;6.572;2023-01-08T01:14:23;99274.75;;;9.96;100.00
4085;BME280;2057;50.858;6.572;2023-01-08T01:16:48;99283.97;;;9.94;100.00
4085;BME280;2057;50.858;6.572;2023-01-08T01:19:15;99289.19;;;9.99;100.00
4085;BME280;2057;50.858;6.572;2023-01-08T01:21:41;99281.34;;;9.91;100.00
4085;BME280;2057;50.858;6.572;2023-01-08T01:24:06;99282.06;;;9.87;100.00
4085;BME280;2057;50.858;6.572;2023-01-08T01:26:33;99281.09;;;9.83;100.00
4085;BME280;2057;50.858;6.572;2023-01-08T01:28:58;99281.25;;;9.88;100.00
4085;BME280;2057;50.858;6.572;2023-01-08T01:31:26;99278.66;;;9.86;100.00
4085;BME280;2057;50.858;6.572;2023-01-08T01:33:51;99268.31;;;9.80;100.00
4085;BME280;2057;50.858;6.572;2023-01-08T01:36:18;99265.25;;;9.91;100.00
4085;BME280;2057;50.858;6.572;2023-01-08T01:38:46;99266.81;;;9.85;100.00
4085;BME280;2057;50.858;6.572;2023-01-08T01:41:23;99260.97;;;9.88;100.00
4085;BME280;2057;50.858;6.572;2023-01-08T01:43:49;99263.47;;;9.86;100.00
4085;BME280;2057;50.858;6.572;2023-01-08T01:46:23;99256.06;;;9.94;100.00
4085;BME280;2057;50.858;6.572;2023-01-08T01:48:53;99257.97;;;10.01;100.00
4085;BME280;2057;50.858;6.572;2023-01-08T01:51:19;99248.63;;;9.99;100.00
4085;BME280;2057;50.858;6.572;2023-01-08T01:53:45;99252.72;;;9.95;100.00
4085;BME280;2057;50.858;6.572;2023-01-08T01:56:14;99258.69;;;9.96;100.00
4085;BME280;2057;50.858;6.572;2023-01-08T01:58:39;99252.72;;;9.95;100.00
4085;BME280;2057;50.858;6.572;2023-01-08T02:01:07;99258.81;;;10.00;100.00
4085;BME280;2057;50.858;6.572;2023-01-08T02:03:36;99261.16;;;9.94;100.00
4085;BME280;2057;50.858;6.572;2023-01-08T02:06:18;99259.19;;;9.85;100.00
4085;BME280;2057;50.858;6.572;2023-01-08T02:11:46;99247.94;;;10.04;100.00
4085;BME280;2057;50.858;6.572;2023-01-08T02:14:27;99245.66;;;9.85;100.00
4085;BME280;2057;50.858;6.572;2023-01-08T02:17:02;99247.38;;;9.86;100.00
4085;BME280;2057;50.858;6.572;2023-01-08T02:19:56;99234.63;;;9.83;100.00
4085;BME280;2057;50.858;6.572;2023-01-08T02:22:34;99239.47;;;9.77;100.00
4085;BME280;2057;50.858;6.572;2023-01-08T02:27:48;99227.25;;;9.91;100.00
4085;BME280;2057;50.858;6.572;2023-01-08T02:30:18;99227.09;;;9.86;100.00
4085;BME280;2057;50.858;6.572;2023-01-08T02:32:43;99228.53;;;9.78;100.00
4085;BME280;2057;50.858;6.572;2023-01-08T02:35:10;99228.53;;;9.78;100.00
4085;BME280;2057;50.858;6.572;2023-01-08T02:37:36;99229.25;;;9.73;100.00
4085;BME280;2057;50.858;6.572;2023-01-08T02:45:37;99210.34;;;9.64;100.00
4085;BME280;2057;50.858;6.572;2023-01-08T02:48:11;99194.47;;;9.69;100.00
4085;BME280;2057;50.858;6.572;2023-01-08T02:51:04;99206.53;;;9.77;100.00
4085;BME280;2057;50.858;6.572;2023-01-08T02:56:07;99202.66;;;9.88;100.00
4085;BME280;2057;50.858;6.572;2023-01-08T02:58:36;99189.81;;;9.82;100.00
4085;BME280;2057;50.858;6.572;2023-01-08T03:08:50;99188.59;;;9.98;100.00
4085;BME280;2057;50.858;6.572;2023-01-08T03:11:19;99179.75;;;9.85;100.00
4085;BME280;2057;50.858;6.572;2023-01-08T03:14:06;99182.34;;;9.86;100.00
4085;BME280;2057;50.858;6.572;2023-01-08T03:37:13;99171.44;;;9.89;100.00
4085;BME280;2057;50.858;6.572;2023-01-08T03:39:56;99166.25;;;9.86;100.00
4085;BME280;2057;50.858;6.572;2023-01-08T03:42:24;99161.44;;;9.94;100.00
4085;BME280;2057;50.858;6.572;2023-01-08T03:44:51;99168.91;;;9.89;100.00
4085;BME280;2057;50.858;6.572;2023-01-08T03:47:17;99172.22;;;9.86;100.00
4085;BME280;2057;50.858;6.572;2023-01-08T03:49:45;99168.88;;;9.87;100.00
4085;BME280;2057;50.858;6.572;2023-01-08T03:52:29;99172.38;;;9.93;100.00
4085;BME280;2057;50.858;6.572;2023-01-08T03:54:55;99163.78;;;9.87;100.00
4085;BME280;2057;50.858;6.572;2023-01-08T03:57:20;99157.66;;;9.81;100.00
4085;BME280;2057;50.858;6.572;2023-01-08T03:59:46;99163.97;;;9.94;100.00
4085;BME280;2057;50.858;6.572;2023-01-08T04:02:12;99151.41;;;9.97;99.51
4085;BME280;2057;50.858;6.572;2023-01-08T04:04:37;99158.22;;;9.99;98.59
4085;BME280;2057;50.858;6.572;2023-01-08T04:07:03;99158.16;;;9.98;98.89
4085;BME280;2057;50.858;6.572;2023-01-08T04:09:28;99150.28;;;9.88;100.00
4085;BME280;2057;50.858;6.572;2023-01-08T04:11:53;99156.22;;;9.89;99.84
4085;BME280;2057;50.858;6.572;2023-01-08T04:14:19;99152.38;;;10.02;98.15
4085;BME280;2057;50.858;6.572;2023-01-08T04:16:44;99147.13;;;9.96;99.12
4085;BME280;2057;50.858;6.572;2023-01-08T04:19:10;99143.66;;;9.92;98.76
4085;BME280;2057;50.858;6.572;2023-01-08T04:21:36;99144.53;;;9.94;98.94
4085;BME280;2057;50.858;6.572;2023-01-08T04:24:01;99144.34;;;9.88;98.92
4085;BME280;2057;50.858;6.572;2023-01-08T04:26:27;99147.06;;;9.94;98.44
4085;BME280;2057;50.858;6.572;2023-01-08T04:28:52;99145.13;;;9.85;98.96
4085;BME280;2057;50.858;6.572;2023-01-08T04:31:17;99141.72;;;9.85;98.90
4085;BME280;2057;50.858;6.572;2023-01-08T04:33:43;99149.25;;;9.82;98.50
4085;BME280;2057;50.858;6.572;2023-01-08T04:36:08;99137.38;;;9.81;98.52
4085;BME280;2057;50.858;6.572;2023-01-08T04:38:34;99140.78;;;9.81;98.68
4085;BME280;2057;50.858;6.572;2023-01-08T04:41:00;99133.84;;;9.76;99.07
4085;BME280;2057;50.858;6.572;2023-01-08T04:43:26;99142.31;;;9.76;98.67
4085;BME280;2057;50.858;6.572;2023-01-08T04:45:59;99146.75;;;9.83;98.18
4085;BME280;2057;50.858;6.572;2023-01-08T04:48:26;99141.56;;;9.79;98.07
4085;BME280;2057;50.858;6.572;2023-01-08T04:50:52;99133.69;;;9.98;96.14
4085;BME280;2057;50.858;6.572;2023-01-08T04:53:17;99135.91;;;9.87;97.02
4085;BME280;2057;50.858;6.572;2023-01-08T04:55:43;99131.72;;;9.89;97.33
4085;BME280;2057;50.858;6.572;2023-01-08T04:58:08;99131.69;;;9.88;97.33
4085;BME280;2057;50.858;6.572;2023-01-08T05:00:34;99134.13;;;9.85;98.00
4085;BME280;2057;50.858;6.572;2023-01-08T05:03:00;99140.63;;;9.77;98.65
4085;BME280;2057;50.858;6.572;2023-01-08T05:05:25;99133.63;;;9.68;99.64
4085;BME280;2057;50.858;6.572;2023-01-08T05:07:51;99121.63;;;9.62;100.00
4085;BME280;2057;50.858;6.572;2023-01-08T05:10:16;99123.16;;;9.57;100.00
4085;BME280;2057;50.858;6.572;2023-01-08T05:12:41;99118.56;;;9.45;100.00
4085;BME280;2057;50.858;6.572;2023-01-08T05:15:07;99109.97;;;9.40;100.00
4085;BME280;2057;50.858;6.572;2023-01-08T05:17:33;99108.06;;;9.33;100.00
4085;BME280;2057;50.858;6.572;2023-01-08T05:19:58;99104.44;;;9.24;100.00
4085;BME280;2057;50.858;6.572;2023-01-08T05:22:23;99102.09;;;9.31;100.00
4085;BME280;2057;50.858;6.572;2023-01-08T05:24:49;99107.66;;;9.20;100.00
4085;BME280;2057;50.858;6.572;2023-01-08T05:27:14;99111.69;;;9.14;100.00
4085;BME280;2057;50.858;6.572;2023-01-08T05:29:39;99102.44;;;9.16;100.00
4085;BME280;2057;50.858;6.572;2023-01-08T05:32:13;99108.34;;;9.15;100.00
4085;BME280;2057;50.858;6.572;2023-01-08T05:34:39;99102.66;;;9.22;100.00
4085;BME280;2057;50.858;6.572;2023-01-08T05:37:04;99095.06;;;9.22;100.00
4085;BME280;2057;50.858;6.572;2023-01-08T05:39:29;99093.34;;;9.21;100.00
4085;BME280;2057;50.858;6.572;2023-01-08T05:41:55;99099.13;;;9.17;100.00
4085;BME280;2057;50.858;6.572;2023-01-08T05:44:20;99087.38;;;9.19;100.00
4085;BME280;2057;50.858;6.572;2023-01-08T05:46:45;99090.75;;;9.19;100.00
4085;BME280;2057;50.858;6.572;2023-01-08T05:49:10;99090.34;;;9.05;100.00
4085;BME280;2057;50.858;6.572;2023-01-08T05:51:36;99088.00;;;9.12;100.00
4085;BME280;2057;50.858;6.572;2023-01-08T05:54:03;99090.38;;;9.07;100.00
4085;BME280;2057;50.858;6.572;2023-01-08T05:56:29;99094.63;;;9.08;100.00
4085;BME280;2057;50.858;6.572;2023-01-08T05:58:54;99090.56;;;9.13;100.00
4085;BME280;2057;50.858;6.572;2023-01-08T06:01:20;99102.41;;;9.14;100.00
4085;BME280;2057;50.858;6.572;2023-01-08T06:03:47;99103.53;;;8.97;100.00
4085;BME280;2057;50.858;6.572;2023-01-08T06:06:12;99103.56;;;8.98;100.00
4085;BME280;2057;50.858;6.572;2023-01-08T06:08:38;99102.59;;;8.93;100.00
4085;BME280;2057;50.858;6.572;2023-01-08T06:11:05;99102.63;;;8.94;100.00
4085;BME280;2057;50.858;6.572;2023-01-08T06:13:32;99106.88;;;8.95;100.00
4085;BME280;2057;50.858;6.572;2023-01-08T06:15:58;99105.22;;;8.96;100.00
4085;BME280;2057;50.858;6.572;2023-01-08T06:18:25;99106.94;;;8.97;100.00
4085;BME280;2057;50.858;6.572;2023-01-08T06:20:50;99112.00;;;8.97;100.00
4085;BME280;2057;50.858;6.572;2023-01-08T06:23:15;99116.03;;;8.92;100.00
4085;BME280;2057;50.858;6.572;2023-01-08T06:25:41;99126.03;;;8.89;100.00
4085;BME280;2057;50.858;6.572;2023-01-08T06:28:09;99122.16;;;8.99;100.00
4085;BME280;2057;50.858;6.572;2023-01-08T06:30:34;99127.44;;;9.05;100.00
4085;BME280;2057;50.858;6.572;2023-01-08T06:33:00;99139.94;;;9.00;100.00
4085;BME280;2057;50.858;6.572;2023-01-08T06:35:26;99165.75;;;9.16;100.00
4085;BME280;2057;50.858;6.572;2023-01-08T06:37:55;99185.53;;;9.02;100.00
4085;BME280;2057;50.858;6.572;2023-01-08T06:40:22;99176.91;;;8.71;100.00
4085;BME280;2057;50.858;6.572;2023-01-08T06:42:47;99176.00;;;8.46;100.00
4085;BME280;2057;50.858;6.572;2023-01-08T07:03:19;99174.16;;;8.18;100.00
4085;BME280;2057;50.858;6.572;2023-01-08T07:05:47;99179.38;;;8.22;100.00
4085;BME280;2057;50.858;6.572;2023-01-08T07:08:15;99178.75;;;8.28;100.00
4085;BME280;2057;50.858;6.572;2023-01-08T07:10:42;99179.53;;;8.27;100.00
4085;BME280;2057;50.858;6.572;2023-01-08T07:13:07;99176.31;;;8.31;100.00
4085;BME280;2057;50.858;6.572;2023-01-08T07:15:35;99175.72;;;8.38;100.00
4085;BME280;2057;50.858;6.572;2023-01-08T07:18:03;99160.66;;;8.41;100.00
4085;BME280;2057;50.858;6.572;2023-01-08T07:35:59;99174.75;;;8.35;100.00
4085;BME280;2057;50.858;6.572;2023-01-08T07:38:25;99177.53;;;8.41;100.00
4085;BME280;2057;50.858;6.572;2023-01-08T07:40:50;99168.13;;;8.38;100.00
4085;BME280;2057;50.858;6.572;2023-01-08T07:43:16;99169.53;;;8.30;100.00
4085;BME280;2057;50.858;6.572;2023-01-08T07:53:26;99168.09;;;8.37;100.00
4085;BME280;2057;50.858;6.572;2023-01-08T07:55:52;99165.59;;;8.38;100.00
4085;BME280;2057;50.858;6.572;2023-01-08T07:58:19;99165.56;;;8.37;100.00
4085;BME280;2057;50.858;6.572;2023-01-08T08:14:06;99162.09;;;8.35;99.63
4085;BME280;2057;50.858;6.572;2023-01-08T08:16:32;99163.72;;;8.32;99.98
4085;BME280;2057;50.858;6.572;2023-01-08T08:18:58;99162.41;;;8.20;100.00
4085;BME280;2057;50.858;6.572;2023-01-08T08:21:23;99162.41;;;8.20;100.00
4085;BME280;2057;50.858;6.572;2023-01-08T08:23:49;99152.06;;;8.13;100.00
4085;BME280;2057;50.858;6.572;2023-01-08T08:26:14;99162.53;;;8.00;100.00
4085;BME280;2057;50.858;6.572;2023-01-08T08:28:40;99154.84;;;7.97;100.00
4085;BME280;2057;50.858;6.572;2023-01-08T08:31:05;99152.19;;;7.94;100.00
4085;BME280;2057;50.858;6.572;2023-01-08T08:33:30;99139.88;;;8.03;100.00
4085;BME280;2057;50.858;6.572;2023-01-08T08:35:56;99141.91;;;7.89;100.00
4085;BME280;2057;50.858;6.572;2023-01-08T08:38:21;99131.47;;;7.80;100.00
4085;BME280;2057;50.858;6.572;2023-01-08T08:40:47;99127.28;;;7.80;100.00
4085;BME280;2057;50.858;6.572;2023-01-08T08:43:12;99123.00;;;7.79;100.00
4085;BME280;2057;50.858;6.572;2023-01-08T08:45:37;99125.50;;;7.78;100.00
4085;BME280;2057;50.858;6.572;2023-01-08T08:48:06;99112.56;;;7.70;100.00
4085;BME280;2057;50.858;6.572;2023-01-08T08:50:32;99117.78;;;7.75;100.00
4085;BME280;2057;50.858;6.572;2023-01-08T08:52:59;99115.22;;;7.73;100.00
4085;BME280;2057;50.858;6.572;2023-01-08T08:55:27;99104.59;;;7.82;100.00
4085;BME280;2057;50.858;6.572;2023-01-08T08:57:53;99108.38;;;7.93;100.00
4085;BME280;2057;50.858;6.572;2023-01-08T09:00:21;99104.47;;;8.01;100.00
4085;BME280;2057;50.858;6.572;2023-01-08T09:02:49;99101.09;;;8.01;100.00
4085;BME280;2057;50.858;6.572;2023-01-08T09:05:15;99108.19;;;7.89;100.00
4085;BME280;2057;50.858;6.572;2023-01-08T09:07:40;99107.28;;;7.87;100.00
4085;BME280;2057;50.858;6.572;2023-01-08T09:10:06;99114.19;;;7.91;100.00
4085;BME280;2057;50.858;6.572;2023-01-08T09:12:32;99111.06;;;7.98;100.00
4085;BME280;2057;50.858;6.572;2023-01-08T09:14:57;99114.53;;;8.00;100.00
4085;BME280;2057;50.858;6.572;2023-01-08T09:17:23;99116.34;;;8.04;100.00
4085;BME280;2057;50.858;6.572;2023-01-08T09:19:49;99108.19;;;8.11;100.00
4085;BME280;2057;50.858;6.572;2023-01-08T09:22:15;99105.28;;;8.25;100.00
4085;BME280;2057;50.858;6.572;2023-01-08T09:24:40;99097.94;;;8.31;100.00
4085;BME280;2057;50.858;6.572;2023-01-08T09:27:05;99101.09;;;8.48;100.00
4085;BME280;2057;50.858;6.572;2023-01-08T10:59:58;98973.81;;;10.58;87.99
4085;BME280;2057;50.858;6.572;2023-01-08T11:02:35;98978.22;;;10.66;89.28
4085;BME280;2057;50.858;6.572;2023-01-08T11:05:04;98976.28;;;10.56;88.29
4085;BME280;2057;50.858;6.572;2023-01-08T11:07:35;98976.41;;;10.62;90.37
4085;BME280;2057;50.858;6.572;2023-01-08T11:10:01;98976.22;;;10.53;87.99
4085;BME280;2057;50.858;6.572;2023-01-08T11:12:38;98966.22;;;10.59;89.17
4085;BME280;2057;50.858;6.572;2023-01-08T11:15:22;98967.22;;;10.66;88.18
4085;BME280;2057;50.858;6.572;2023-01-08T11:17:51;98963.59;;;10.56;88.68
4085;BME280;2057;50.858;6.572;2023-01-08T11:20:21;98964.03;;;10.38;90.04
4085;BME280;2057;50.858;6.572;2023-01-08T11:22:47;98958.75;;;10.32;91.44
4085;BME280;2057;50.858;6.572;2023-01-08T11:25:30;98963.00;;;10.33;89.96
4085;BME280;2057;50.858;6.572;2023-01-08T11:27:57;98970.03;;;10.42;90.83
4085;BME280;2057;50.858;6.572;2023-01-08T11:30:26;98961.25;;;10.64;90.08
4085;BME280;2057;50.858;6.572;2023-01-08T11:35:31;98946.19;;;10.72;89.03
4085;BME280;2057;50.858;6.572;2023-01-08T11:37:59;98957.38;;;10.80;90.03
4085;BME280;2057;50.858;6.572;2023-01-08T11:52:01;98955.16;;;10.57;81.10
4085;BME280;2057;50.858;6.572;2023-01-08T11:57:25;98927.50;;;10.68;79.62
4085;BME280;2057;50.858;6.572;2023-01-08T12:00:14;98937.66;;;10.68;79.78
4085;BME280;2057;50.858;6.572;2023-01-08T12:02:54;98929.16;;;10.66;79.47
4085;BME280;2057;50.858;6.572;2023-01-08T12:08:03;98922.19;;;10.57;81.52
4085;BME280;2057;50.858;6.572;2023-01-08T12:10:37;98919.66;;;10.57;83.75
4085;BME280;2057;50.858;6.572;2023-01-08T12:33:12;98911.09;;;10.20;80.30
4085;BME280;2057;50.858;6.572;2023-01-08T12:35:47;98902.56;;;10.16;80.69
4085;BME280;2057;50.858;6.572;2023-01-08T12:38:20;98908.50;;;10.17;81.48
4085;BME280;2057;50.858;6.572;2023-01-08T12:40:54;98913.00;;;10.27;82.62
4085;BME280;2057;50.858;6.572;2023-01-08T12:43:26;98901.31;;;10.34;83.57
4085;BME280;2057;50.858;6.572;2023-01-08T12:45:54;98907.56;;;10.47;82.49
4085;BME280;2057;50.858;6.572;2023-01-08T12:48:26;98894.19;;;10.54;82.70
4085;BME280;2057;50.858;6.572;2023-01-08T12:56:22;98887.91;;;10.38;80.61
4085;BME280;2057;50.858;6.572;2023-01-08T13:04:08;98873.66;;;10.45;78.53
4085;BME280;2057;50.858;6.572;2023-01-08T13:06:34;98873.50;;;10.37;78.59
4085;BME280;2057;50.858;6.572;2023-01-08T13:09:00;98884.59;;;10.41;79.34
4085;BME280;2057;50.858;6.572;2023-01-08T13:11:31;98883.09;;;10.49;82.07
4085;BME280;2057;50.858;6.572;2023-01-08T13:14:07;98868.31;;;10.32;82.84
4085;BME280;2057;50.858;6.572;2023-01-08T13:16:37;98870.59;;;10.22;84.30
4085;BME280;2057;50.858;6.572;2023-01-08T13:19:04;98873.13;;;10.22;83.90
4085;BME280;2057;50.858;6.572;2023-01-08T13:21:40;98866.44;;;10.25;82.75
4085;BME280;2057;50.858;6.572;2023-01-08T13:24:20;98861.47;;;10.30;80.62
4085;BME280;2057;50.858;6.572;2023-01-08T13:26:48;98860.69;;;10.32;83.03
4085;BME280;2057;50.858;6.572;2023-01-08T13:29:36;98861.44;;;10.28;83.65
4085;BME280;2057;50.858;6.572;2023-01-08T13:32:03;98860.50;;;10.25;83.17
4085;BME280;2057;50.858;6.572;2023-01-08T13:34:38;98848.84;;;10.33;83.37
4085;BME280;2057;50.858;6.572;2023-01-08T13:37:06;98846.75;;;10.50;82.43
4085;BME280;2057;50.858;6.572;2023-01-08T13:39:35;98840.66;;;10.42;82.67
4085;BME280;2057;50.858;6.572;2023-01-08T13:44:51;98849.88;;;10.38;84.13
4085;BME280;2057;50.858;6.572;2023-01-08T13:49:52;98841.47;;;10.41;83.30
4085;BME280;2057;50.858;6.572;2023-01-08T13:52:40;98844.53;;;10.27;84.79
4085;BME280;2057;50.858;6.572;2023-01-08T13:55:34;98830.06;;;10.25;85.63
4085;BME280;2057;50.858;6.572;2023-01-08T13:58:14;98819.22;;;10.30;85.05
4085;BME280;2057;50.858;6.572;2023-01-08T14:05:45;98809.72;;;10.22;82.77
4085;BME280;2057;50.858;6.572;2023-01-08T14:08:21;98811.28;;;10.16;84.18
4085;BME280;2057;50.858;6.572;2023-01-08T14:10:46;98811.22;;;10.13;84.68
4085;BME280;2057;50.858;6.572;2023-01-08T14:13:14;98811.25;;;10.15;85.06
4085;BME280;2057;50.858;6.572;2023-01-08T14:15:41;98805.97;;;10.05;86.49
4085;BME280;2057;50.858;6.572;2023-01-08T14:18:06;98804.38;;;10.11;85.87
4085;BME280;2057;50.858;6.572;2023-01-08T14:20:35;98793.50;;;10.15;86.34
4085;BME280;2057;50.858;6.572;2023-01-08T14:23:09;98783.38;;;10.16;85.35
4085;BME280;2057;50.858;6.572;2023-01-08T14:25:35;98780.63;;;10.07;87.83
4085;BME280;2057;50.858;6.572;2023-01-08T14:28:03;98791.56;;;10.04;87.89
4085;BME280;2057;50.858;6.572;2023-01-08T14:30:29;98781.47;;;10.06;85.79
4085;BME280;2057;50.858;6.572;2023-01-08T14:32:58;98778.88;;;10.03;86.07
4085;BME280;2057;50.858;6.572;2023-01-08T14:35:30;98782.84;;;9.93;86.12
4085;BME280;2057;50.858;6.572;2023-01-08T14:37:59;98782.69;;;9.85;85.49
4085;BME280;2057;50.858;6.572;2023-01-08T14:40:28;98781.00;;;9.86;85.37
4085;BME280;2057;50.858;6.572;2023-01-08T14:42:54;98774.19;;;9.83;86.74
4085;BME280;2057;50.858;6.572;2023-01-08T14:45:29;98774.16;;;9.82;85.64
4085;BME280;2057;50.858;6.572;2023-01-08T14:47:59;98763.97;;;9.80;85.60
4085;BME280;2057;50.858;6.572;2023-01-08T14:50:32;98761.41;;;9.79;86.35
4085;BME280;2057;50.858;6.572;2023-01-08T14:55:48;98776.16;;;9.60;88.36
4085;BME280;2057;50.858;6.572;2023-01-08T14:58:22;98772.06;;;9.65;86.97
4085;BME280;2057;50.858;6.572;2023-01-08T15:01:12;98768.78;;;9.69;85.76
4085;BME280;2057;50.858;6.572;2023-01-08T15:03:43;98776.22;;;9.63;86.58
4085;BME280;2057;50.858;6.572;2023-01-08T15:06:10;98769.41;;;9.61;86.62
4085;BME280;2057;50.858;6.572;2023-01-08T15:08:41;98766.06;;;9.62;86.46
4085;BME280;2057;50.858;6.572;2023-01-08T15:13:49;98765.13;;;9.58;87.38
4085;BME280;2057;50.858;6.572;2023-01-08T15:19:03;98765.75;;;9.49;88.16
4085;BME280;2057;50.858;6.572;2023-01-08T15:21:29;98758.88;;;9.45;88.50
4085;BME280;2057;50.858;6.572;2023-01-08T15:23:57;98761.25;;;9.37;87.73
4085;BME280;2057;50.858;6.572;2023-01-08T15:26:24;98753.66;;;9.39;86.29
4085;BME280;2057;50.858;6.572;2023-01-08T15:28:55;98757.94;;;9.40;86.02
4085;BME280;2057;50.858;6.572;2023-01-08T15:31:24;98758.47;;;9.28;87.05
4085;BME280;2057;50.858;6.572;2023-01-08T15:33:50;98753.91;;;9.15;87.87
4085;BME280;2057;50.858;6.572;2023-01-08T15:36:15;98761.59;;;9.19;87.35
4085;BME280;2057;50.858;6.572;2023-01-08T15:38:40;98761.38;;;9.10;87.45
4085;BME280;2057;50.858;6.572;2023-01-08T15:41:09;98756.19;;;9.05;87.53
4085;BME280;2057;50.858;6.572;2023-01-08T15:43:34;98745.94;;;9.01;87.67
4085;BME280;2057;50.858;6.572;2023-01-08T15:46:00;98753.28;;;8.91;88.60
4085;BME280;2057;50.858;6.572;2023-01-08T15:48:25;98748.38;;;8.96;88.62
4085;BME280;2057;50.858;6.572;2023-01-08T15:50:51;98748.91;;;8.86;88.76
4085;BME280;2057;50.858;6.572;2023-01-08T15:53:19;98744.69;;;8.86;88.78
4085;BME280;2057;50.858;6.572;2023-01-08T15:55:47;98746.16;;;8.78;89.37
4085;BME280;2057;50.858;6.572;2023-01-08T15:58:14;98739.06;;;8.65;90.37
4085;BME280;2057;50.858;6.572;2023-01-08T16:00:42;98742.38;;;8.62;90.67
4085;BME280;2057;50.858;6.572;2023-01-08T16:18:38;98737.06;;;8.53;91.06
4085;BME280;2057;50.858;6.572;2023-01-08T16:21:04;98738.56;;;8.47;91.35
4085;BME280;2057;50.858;6.572;2023-01-08T16:23:32;98726.00;;;8.49;91.27
4085;BME280;2057;50.858;6.572;2023-01-08T16:25:57;98736.78;;;8.45;91.87
4085;BME280;2057;50.858;6.572;2023-01-08T16:28:25;98724.75;;;8.36;92.60
4085;BME280;2057;50.858;6.572;2023-01-08T16:30:50;98735.09;;;8.45;92.17
4085;BME280;2057;50.858;6.572;2023-01-08T16:33:16;98726.38;;;8.34;92.93
4085;BME280;2057;50.858;6.572;2023-01-08T16:35:41;98719.59;;;8.33;92.98
4085;BME280;2057;50.858;6.572;2023-01-08T16:38:07;98715.44;;;8.35;93.05
4085;BME280;2057;50.858;6.572;2023-01-08T16:40:32;98709.03;;;8.18;94.21
4085;BME280;2057;50.858;6.572;2023-01-08T16:42:59;98708.28;;;8.20;94.30
4085;BME280;2057;50.858;6.572;2023-01-08T16:45:27;98709.56;;;8.07;94.63
4085;BME280;2057;50.858;6.572;2023-01-08T16:47:53;98707.44;;;7.92;95.43
4085;BME280;2057;50.858;6.572;2023-01-08T16:50:18;98707.75;;;8.03;94.88
4085;BME280;2057;50.858;6.572;2023-01-08T16:52:43;98699.19;;;7.98;95.35
4085;BME280;2057;50.858;6.572;2023-01-08T16:55:09;98703.31;;;7.96;95.89
4085;BME280;2057;50.858;6.572;2023-01-08T16:57:35;98695.53;;;7.88;95.81
4085;BME280;2057;50.858;6.572;2023-01-08T17:00:00;98684.38;;;7.81;96.67
4085;BME280;2057;50.858;6.572;2023-01-08T17:02:26;98695.47;;;7.87;95.77
4085;BME280;2057;50.858;6.572;2023-01-08T17:04:51;98688.00;;;7.90;95.98
4085;BME280;2057;50.858;6.572;2023-01-08T17:07:17;98690.47;;;7.88;96.23
4085;BME280;2057;50.858;6.572;2023-01-08T17:09:42;98693.84;;;7.89;96.53
4085;BME280;2057;50.858;6.572;2023-01-08T17:12:07;98676.41;;;7.96;96.00
4085;BME280;2057;50.858;6.572;2023-01-08T17:14:36;98675.97;;;8.11;95.48
4085;BME280;2057;50.858;6.572;2023-01-08T17:17:01;98671.00;;;8.13;95.47
4085;BME280;2057;50.858;6.572;2023-01-08T17:19:26;98670.13;;;8.12;95.39
4085;BME280;2057;50.858;6.572;2023-01-08T17:21:52;98675.44;;;8.22;95.15
4085;BME280;2057;50.858;6.572;2023-01-08T17:24:17;98669.59;;;8.24;95.28
4085;BME280;2057;50.858;6.572;2023-01-08T17:26:43;98677.06;;;8.20;96.17
4085;BME280;2057;50.858;6.572;2023-01-08T17:29:08;98671.16;;;8.19;96.50
4085;BME280;2057;50.858;6.572;2023-01-08T17:31:33;98666.00;;;8.16;96.31
4085;BME280;2057;50.858;6.572;2023-01-08T17:34:05;98659.50;;;8.24;96.27
4085;BME280;2057;50.858;6.572;2023-01-08T17:36:31;98655.75;;;8.11;96.96
4085;BME280;2057;50.858;6.572;2023-01-08T17:38:58;98655.56;;;8.04;97.73
4085;BME280;2057;50.858;6.572;2023-01-08T17:41:23;98653.66;;;7.96;97.67
4085;BME280;2057;50.858;6.572;2023-01-08T17:44:10;98646.84;;;7.94;98.26
4085;BME280;2057;50.858;6.572;2023-01-08T17:46:37;98647.69;;;7.93;98.52
4085;BME280;2057;50.858;6.572;2023-01-08T17:49:06;98635.22;;;7.99;97.46
4085;BME280;2057;50.858;6.572;2023-01-08T17:51:31;98638.81;;;7.78;98.79
4085;BME280;2057;50.858;6.572;2023-01-08T17:53:57;98632.41;;;7.90;98.24
4085;BME280;2057;50.858;6.572;2023-01-08T17:56:23;98629.00;;;7.89;98.20
4085;BME280;2057;50.858;6.572;2023-01-08T17:58:49;98623.66;;;7.78;98.49
4085;BME280;2057;50.858;6.572;2023-01-08T18:01:14;98617.78;;;7.79;98.38
4085;BME280;2057;50.858;6.572;2023-01-08T18:03:40;98615.13;;;7.75;98.68
4085;BME280;2057;50.858;6.572;2023-01-08T18:06:07;98612.59;;;7.75;98.97
4085;BME280;2057;50.858;6.572;2023-01-08T18:08:34;98605.69;;;7.69;99.74